Ludlow, Vermont
Current Conditions -  °F | °C
As of 11:09 PM on Wednesday 24 Dec 2014 (Local Time) from KVSF Reporting Station
Moderate Fog Moderate Fog  
Wind Chill: 34°   Ceiling: 200
Heat Index: 34°   Visibility: 0.5mi
Dew Point: 34°   Wind: 0mph
Humidity: 100%   Direction: NA
Pressure: 29.56"   Gusts: NA
Location:  43.4°N, 72.7°W
Report Text: KVSF 250409Z AUTO 00000KT 1/2SM FG OVC002 01/01 A2956 RMK AO2 T00110011 TSNO
Loading
Personal Weather Stations






























Interactive Weather Map New forecast layout! Learn more

10-Day Weather Forecast

Advertisements
Track Severe Weather on mobile